createdAt,value
2017-04-21T00:00:14.086Z,32.73
2017-04-21T00:01:13.718Z,31.08
2017-04-21T00:02:13.217Z,33.00
2017-04-21T00:03:12.920Z,32.90
2017-04-21T00:04:12.447Z,37.07
2017-04-21T00:05:12.053Z,35.43
2017-04-21T00:06:11.876Z,38.45
2017-04-21T00:07:15.480Z,32.18
2017-04-21T00:08:15.167Z,30.97
2017-04-21T00:09:14.693Z,30.67
2017-04-21T00:17:22.258Z,33.50
2017-04-21T00:18:21.756Z,32.07
2017-04-21T00:19:21.293Z,32.73
2017-04-21T00:20:20.856Z,34.37
2017-04-21T00:21:20.412Z,32.28
2017-04-21T00:22:20.608Z,34.92
2017-04-21T00:23:20.213Z,36.07
2017-04-21T00:24:19.895Z,35.33
2017-04-21T00:25:20.129Z,37.42
2017-04-21T00:26:19.628Z,34.98
2017-04-21T00:27:19.176Z,34.28
2017-04-21T00:28:19.132Z,32.85
2017-04-21T00:29:20.188Z,33.25
2017-04-21T00:30:20.453Z,33.07
2017-04-21T00:31:20.923Z,33.75
2017-04-21T00:32:20.512Z,31.17
2017-04-21T00:33:20.187Z,32.82
2017-04-21T00:34:19.840Z,34.65
2017-04-21T00:35:19.436Z,32.53
2017-04-21T00:36:18.941Z,34.10
2017-04-21T00:37:18.428Z,38.28
2017-04-21T00:38:17.926Z,36.10
2017-04-21T00:39:18.134Z,34.30
2017-04-21T00:40:18.578Z,35.10
2017-04-21T00:41:18.131Z,36.23
2017-04-21T00:42:17.724Z,35.67
2017-04-21T00:43:19.772Z,41.38
2017-04-21T00:44:19.521Z,36.07
2017-04-21T00:45:19.254Z,34.62
2017-04-21T00:46:18.792Z,35.10
2017-04-21T00:47:18.335Z,34.42
2017-04-21T00:48:17.890Z,33.85
2017-04-21T00:49:17.450Z,36.42
2017-04-21T00:50:17.044Z,36.12
2017-04-21T00:51:16.670Z,36.75
2017-04-21T00:52:16.295Z,34.92
2017-04-21T00:53:15.890Z,37.97
2017-04-21T00:54:15.428Z,36.50
2017-04-21T00:55:15.030Z,38.08
2017-04-21T00:56:14.519Z,34.03
2017-04-21T00:57:14.099Z,38.20
2017-04-21T00:58:13.716Z,37.82
2017-04-21T00:59:13.270Z,35.98
2017-04-21T01:00:12.857Z,29.97
2017-04-21T01:01:12.340Z,30.55
2017-04-21T01:02:14.289Z,33.57
2017-04-21T01:03:13.799Z,38.92
2017-04-21T01:04:15.140Z,33.57
2017-04-21T01:05:14.720Z,32.23
2017-04-21T01:06:14.658Z,37.13
2017-04-21T01:07:14.773Z,37.03
2017-04-21T01:08:18.191Z,39.13
2017-04-21T01:09:17.768Z,35.60
2017-04-21T01:10:17.363Z,44.10
2017-04-21T01:11:16.894Z,39.27
2017-04-21T01:12:16.580Z,39.82
2017-04-21T01:13:16.181Z,33.80
2017-04-21T01:14:16.599Z,34.55
2017-04-21T01:15:16.243Z,34.70
2017-04-21T01:16:16.488Z,34.02
2017-04-21T01:17:16.007Z,40.07
2017-04-21T01:18:15.694Z,34.63
2017-04-21T01:19:15.260Z,36.65
2017-04-21T01:20:14.874Z,40.78
2017-04-21T01:21:14.453Z,36.52
2017-04-21T01:22:13.994Z,34.45
2017-04-21T01:23:14.471Z,37.88
2017-04-21T01:24:14.011Z,38.00
2017-04-21T01:25:13.553Z,44.00
2017-04-21T01:26:13.107Z,37.65
2017-04-21T01:27:12.649Z,38.13
2017-04-21T01:28:12.185Z,43.55
2017-04-21T01:29:12.085Z,38.68
2017-04-21T01:30:12.661Z,38.58
2017-04-21T01:31:12.375Z,36.40
2017-04-21T01:32:11.839Z,38.35
2017-04-21T01:33:12.106Z,39.98
2017-04-21T01:34:11.670Z,37.02
2017-04-21T01:35:11.175Z,42.03
2017-04-21T01:36:11.046Z,43.08
2017-04-21T01:37:10.736Z,42.73
2017-04-21T01:38:10.712Z,37.73
2017-04-21T01:39:11.019Z,39.78
2017-04-21T01:40:10.593Z,37.37
2017-04-21T01:41:10.142Z,39.58
2017-04-21T01:42:09.727Z,38.82
2017-04-21T01:43:09.267Z,37.78
2017-04-21T01:44:08.790Z,37.65
2017-04-21T01:45:08.437Z,40.85
2017-04-21T01:46:08.591Z,37.75
2017-04-21T01:47:08.175Z,40.32
2017-04-21T01:48:07.664Z,39.78
2017-04-21T01:49:07.155Z,36.92
2017-04-21T01:50:06.628Z,39.22
2017-04-21T01:51:06.378Z,39.47
2017-04-21T01:52:05.909Z,41.87
2017-04-21T01:53:05.399Z,34.40
2017-04-21T01:54:04.889Z,37.42
2017-04-21T01:55:04.405Z,35.35
2017-04-21T01:56:03.908Z,38.22
2017-04-21T01:57:03.673Z,39.95
2017-04-21T01:58:03.185Z,38.65
2017-04-21T01:59:02.742Z,42.07
2017-04-21T02:00:02.244Z,39.53
2017-04-21T02:01:01.736Z,44.90
2017-04-21T02:02:01.291Z,37.82
2017-04-21T02:03:00.994Z,38.28
2017-04-21T02:04:00.481Z,42.10
2017-04-21T02:04:59.962Z,39.20
2017-04-21T02:05:59.417Z,36.18
2017-04-21T02:06:58.987Z,36.57
2017-04-21T02:07:58.707Z,41.48
2017-04-21T02:08:58.286Z,39.98
2017-04-21T02:09:57.869Z,42.77
2017-04-21T02:10:57.435Z,38.80
2017-04-21T02:11:57.037Z,39.00
2017-04-21T02:12:56.518Z,43.88
2017-04-21T02:13:56.101Z,42.20
2017-04-21T02:14:55.869Z,38.38
2017-04-21T02:15:55.329Z,42.60
2017-04-21T02:16:54.841Z,37.70
2017-04-21T02:17:54.392Z,44.55
2017-04-21T02:18:53.882Z,41.83
2017-04-21T02:19:53.720Z,44.83
2017-04-21T02:20:53.760Z,45.27
2017-04-21T02:21:53.609Z,46.08
2017-04-21T02:22:53.131Z,41.90
2017-04-21T02:23:52.943Z,46.02
2017-04-21T02:24:52.417Z,44.92
2017-04-21T02:25:52.932Z,43.13
2017-04-21T02:26:52.913Z,43.27
2017-04-21T02:27:53.025Z,42.52
2017-04-21T02:28:52.715Z,45.65
2017-04-21T02:29:52.866Z,47.70
2017-04-21T02:30:52.403Z,44.90
2017-04-21T02:31:51.932Z,44.85
2017-04-21T02:32:51.422Z,46.20
2017-04-21T02:33:50.884Z,46.90
2017-04-21T02:34:50.379Z,48.25
2017-04-21T02:35:49.959Z,41.47
2017-04-21T02:36:49.511Z,46.23
2017-04-21T02:37:49.097Z,47.43
2017-04-21T02:38:48.609Z,45.32
2017-04-21T02:39:48.102Z,49.50
2017-04-21T02:40:47.601Z,43.60
2017-04-21T02:41:47.093Z,55.82
2017-04-21T02:42:48.296Z,51.38
2017-04-21T02:43:47.824Z,49.37
2017-04-21T02:44:47.351Z,54.10
2017-04-21T02:45:46.874Z,51.63
2017-04-21T02:46:46.481Z,51.45
2017-04-21T02:47:45.972Z,46.65
2017-04-21T02:48:45.739Z,47.88
2017-04-21T02:49:45.199Z,57.45
2017-04-21T02:50:44.718Z,58.18
2017-04-21T02:51:45.006Z,51.83
2017-04-21T02:52:44.492Z,48.17
2017-04-21T02:53:44.007Z,48.80
2017-04-21T02:54:43.884Z,50.80
2017-04-21T02:55:43.349Z,50.45
2017-04-21T02:56:42.848Z,51.88
2017-04-21T02:57:42.389Z,47.62
2017-04-21T02:58:41.889Z,51.90
2017-04-21T02:59:41.388Z,51.33
2017-04-21T03:00:41.737Z,51.08
2017-04-21T03:01:42.011Z,50.67
2017-04-21T03:02:41.478Z,56.62
2017-04-21T03:03:41.048Z,59.38
2017-04-21T03:04:40.599Z,52.32
2017-04-21T03:05:40.149Z,60.83
2017-04-21T03:06:39.832Z,59.55
2017-04-21T03:07:39.447Z,57.10
2017-04-21T03:08:38.949Z,59.02
2017-04-21T03:09:38.463Z,53.77
2017-04-21T03:10:38.216Z,57.27
2017-04-21T03:11:37.795Z,54.68
2017-04-21T03:12:37.417Z,53.28
2017-04-21T03:13:37.030Z,58.05
2017-04-21T03:14:36.712Z,60.88
2017-04-21T03:15:36.213Z,59.57
2017-04-21T03:16:35.743Z,58.60
2017-04-21T03:17:35.325Z,61.07
2017-04-21T03:18:34.875Z,64.90
2017-04-21T03:19:34.365Z,62.22
2017-04-21T03:20:36.149Z,58.85
2017-04-21T03:21:36.320Z,70.23
2017-04-21T03:22:35.847Z,63.05
2017-04-21T03:23:35.529Z,66.57
2017-04-21T03:24:35.066Z,64.18
2017-04-21T03:25:34.604Z,68.13
2017-04-21T03:26:34.112Z,64.65
2017-04-21T03:27:33.663Z,68.92
2017-04-21T03:28:33.200Z,68.45
2017-04-21T03:29:32.893Z,62.38
2017-04-21T03:30:33.332Z,63.38
2017-04-21T03:31:32.795Z,62.83
2017-04-21T03:32:32.306Z,63.70
2017-04-21T03:33:31.977Z,65.20
2017-04-21T03:34:31.564Z,63.27
2017-04-21T03:35:31.227Z,64.33
2017-04-21T03:36:31.456Z,72.40
2017-04-21T03:37:30.979Z,67.15
2017-04-21T03:38:30.517Z,71.08
2017-04-21T03:39:29.986Z,78.67
2017-04-21T03:40:29.518Z,74.30
2017-04-21T03:41:29.124Z,67.88
2017-04-21T03:42:28.649Z,70.22
2017-04-21T03:43:28.161Z,68.17
2017-04-21T03:44:27.638Z,71.58
2017-04-21T03:45:27.216Z,69.08
2017-04-21T03:46:26.709Z,70.52
2017-04-21T03:47:26.324Z,75.53
2017-04-21T03:48:25.813Z,73.02
2017-04-21T03:49:25.311Z,69.37
2017-04-21T03:50:24.812Z,76.63
2017-04-21T03:51:24.282Z,73.78
2017-04-21T03:52:23.801Z,84.87
2017-04-21T03:53:23.401Z,77.83
2017-04-21T03:54:22.942Z,73.63
2017-04-21T03:55:22.405Z,72.77
2017-04-21T03:56:21.875Z,70.58
2017-04-21T03:57:21.820Z,77.80
2017-04-21T03:58:21.374Z,73.27
2017-04-21T03:59:21.075Z,82.65
2017-04-21T04:00:20.528Z,78.52
2017-04-21T04:01:20.016Z,86.82
2017-04-21T04:02:19.590Z,76.62
2017-04-21T04:03:19.833Z,91.33
2017-04-21T04:04:19.393Z,75.97
2017-04-21T04:05:19.027Z,82.43
2017-04-21T04:06:18.511Z,81.52
2017-04-21T04:07:18.003Z,84.52
2017-04-21T04:08:17.506Z,79.73
2017-04-21T04:09:16.975Z,85.70
2017-04-21T04:10:16.465Z,84.48
2017-04-21T04:11:16.288Z,77.17
2017-04-21T04:12:15.786Z,76.33
2017-04-21T04:13:15.412Z,85.73
2017-04-21T04:14:14.933Z,81.05
2017-04-21T04:15:14.563Z,87.00
2017-04-21T04:16:14.822Z,83.88
2017-04-21T04:17:14.392Z,87.37
2017-04-21T04:18:13.923Z,86.23
2017-04-21T04:19:13.400Z,77.68
2017-04-21T04:20:12.901Z,89.33
2017-04-21T04:21:12.394Z,80.83
2017-04-21T04:22:11.938Z,84.10
2017-04-21T04:23:11.618Z,81.03
2017-04-21T04:24:11.143Z,91.75
2017-04-21T04:25:10.660Z,86.90
2017-04-21T04:26:10.181Z,85.42
2017-04-21T04:27:09.670Z,94.80
2017-04-21T04:28:09.199Z,84.30
2017-04-21T04:29:09.166Z,82.82
2017-04-21T04:30:08.678Z,84.68
2017-04-21T04:31:08.168Z,84.25
2017-04-21T04:32:08.852Z,93.82
2017-04-21T04:33:08.322Z,91.15
2017-04-21T04:34:07.862Z,85.93
2017-04-21T04:35:07.404Z,74.28
2017-04-21T04:36:06.922Z,89.70
2017-04-21T04:37:06.599Z,81.35
2017-04-21T04:38:06.108Z,88.27
2017-04-21T04:39:06.241Z,88.70
2017-04-21T04:40:05.727Z,86.47
2017-04-21T04:41:05.395Z,93.45
2017-04-21T04:42:04.875Z,84.27
2017-04-21T04:43:04.432Z,83.57
2017-04-21T04:44:03.957Z,90.03
2017-04-21T04:45:03.528Z,84.32
2017-04-21T04:46:03.048Z,88.73
2017-04-21T04:47:02.669Z,80.65
2017-04-21T04:48:02.140Z,90.48
2017-04-21T04:49:01.635Z,84.00
2017-04-21T04:50:01.109Z,89.47
2017-04-21T04:51:00.566Z,87.78
2017-04-21T04:52:00.805Z,86.85
2017-04-21T04:53:00.531Z,86.78
2017-04-21T04:54:00.529Z,87.60
2017-04-21T04:55:00.030Z,82.13
2017-04-21T04:55:59.572Z,87.97
2017-04-21T04:56:59.120Z,86.25
2017-04-21T04:57:58.600Z,90.67
2017-04-21T04:58:58.539Z,91.77
2017-04-21T04:59:58.871Z,82.28
2017-04-21T05:00:58.401Z,84.72
2017-04-21T05:01:58.955Z,85.07
2017-04-21T05:02:59.745Z,83.15
2017-04-21T05:03:59.430Z,76.68
2017-04-21T05:05:00.343Z,75.97
2017-04-21T05:05:59.855Z,83.83
2017-04-21T05:07:00.010Z,74.50
2017-04-21T05:07:59.516Z,89.83
2017-04-21T05:08:59.052Z,82.53
2017-04-21T05:09:58.648Z,92.00
2017-04-21T05:10:58.216Z,86.57
2017-04-21T05:11:57.764Z,90.47
2017-04-21T05:12:57.227Z,93.98
2017-04-21T05:13:57.488Z,88.45
2017-04-21T05:14:57.292Z,80.88
2017-04-21T05:15:56.957Z,84.48
2017-04-21T05:16:56.448Z,84.68
2017-04-21T05:17:56.800Z,87.32
2017-04-21T05:18:56.429Z,89.63
2017-04-21T05:19:55.932Z,88.40
2017-04-21T05:20:55.705Z,84.03
2017-04-21T05:21:55.237Z,90.10
2017-04-21T05:22:54.848Z,89.35
2017-04-21T05:23:56.132Z,90.40
2017-04-21T05:24:56.849Z,82.20
2017-04-21T05:25:57.490Z,81.27
2017-04-21T05:26:57.128Z,88.02
2017-04-21T05:27:56.907Z,94.20
2017-04-21T05:28:56.540Z,83.77
2017-04-21T05:29:56.858Z,84.15
2017-04-21T05:30:56.459Z,88.47
2017-04-21T05:31:56.172Z,94.68
2017-04-21T05:32:55.727Z,88.32
2017-04-21T05:33:55.187Z,81.78
2017-04-21T05:34:54.707Z,80.22
2017-04-21T05:35:54.286Z,90.38
2017-04-21T05:36:54.517Z,88.22
2017-04-21T05:37:54.364Z,84.83
2017-04-21T05:38:54.328Z,84.55
2017-04-21T05:39:53.856Z,81.17
2017-04-21T05:40:53.391Z,90.68
2017-04-21T05:41:52.885Z,75.68
2017-04-21T05:42:53.444Z,83.43
2017-04-21T05:43:53.825Z,79.82
2017-04-21T05:44:53.300Z,87.02
2017-04-21T05:45:52.769Z,75.52
2017-04-21T05:46:52.650Z,80.60
2017-04-21T05:47:52.949Z,76.93
2017-04-21T05:48:53.626Z,86.82
2017-04-21T05:49:54.208Z,82.13
2017-04-21T05:50:53.655Z,81.93
2017-04-21T05:51:53.192Z,84.08
2017-04-21T05:52:53.418Z,79.00
2017-04-21T05:53:52.916Z,90.20
2017-04-21T05:54:52.404Z,87.88
2017-04-21T05:55:54.261Z,89.63
2017-04-21T05:56:53.767Z,85.30
2017-04-21T05:57:54.479Z,91.30
2017-04-21T05:58:54.280Z,92.78
2017-04-21T05:59:53.803Z,86.17
2017-04-21T06:00:53.364Z,99.42
2017-04-21T06:01:52.849Z,86.38
2017-04-21T06:02:53.162Z,87.87
2017-04-21T06:03:53.483Z,99.65
2017-04-21T06:04:52.979Z,79.42
2017-04-21T06:05:52.458Z,86.08
2017-04-21T06:06:53.397Z,86.63
2017-04-21T06:07:54.128Z,92.10
2017-04-21T06:08:53.650Z,89.62
2017-04-21T06:09:53.255Z,84.73
2017-04-21T06:10:52.897Z,90.10
2017-04-21T06:11:52.351Z,91.92
2017-04-21T06:12:51.855Z,88.27
2017-04-21T06:13:51.397Z,85.92
2017-04-21T06:14:51.825Z,85.52
2017-04-21T06:15:51.459Z,85.37
2017-04-21T06:16:51.949Z,87.08
2017-04-21T06:17:51.470Z,95.33
2017-04-21T06:18:50.921Z,88.30
2017-04-21T06:19:51.447Z,93.47
2017-04-21T06:20:51.059Z,92.38
2017-04-21T06:21:50.585Z,96.68
2017-04-21T06:22:50.049Z,92.80
2017-04-21T06:23:49.640Z,95.88
2017-04-21T06:24:49.650Z,94.43
2017-04-21T06:25:50.063Z,99.38
2017-04-21T06:26:49.595Z,86.93
2017-04-21T06:27:49.545Z,81.00
2017-04-21T06:28:49.220Z,89.02
2017-04-21T06:29:48.729Z,89.63
2017-04-21T06:30:49.034Z,99.93
2017-04-21T06:31:48.519Z,89.45
2017-04-21T06:32:47.997Z,83.65
2017-04-21T06:33:47.491Z,84.65
2017-04-21T06:34:46.993Z,93.83
2017-04-21T06:35:46.536Z,91.87
2017-04-21T06:36:46.188Z,91.02
2017-04-21T06:37:45.704Z,86.37
2017-04-21T06:38:45.204Z,85.07
2017-04-21T06:39:45.392Z,94.05
2017-04-21T06:40:44.875Z,75.87
2017-04-21T06:41:44.376Z,91.27
2017-04-21T06:42:44.224Z,91.40
2017-04-21T06:43:43.779Z,92.93
2017-04-21T06:44:44.338Z,89.15
2017-04-21T06:45:43.857Z,87.85
2017-04-21T06:46:43.443Z,94.00
2017-04-21T06:47:43.560Z,85.02
2017-04-21T06:48:44.951Z,83.12
2017-04-21T06:49:44.494Z,87.58
2017-04-21T06:50:43.971Z,96.93
2017-04-21T06:51:43.461Z,91.70
2017-04-21T06:52:42.977Z,82.60
2017-04-21T06:53:42.460Z,92.53
2017-04-21T06:54:42.012Z,95.68
2017-04-21T06:55:41.533Z,93.18
2017-04-21T06:56:41.031Z,91.25
2017-04-21T06:57:40.534Z,86.53
2017-04-21T06:58:40.096Z,91.57
2017-04-21T06:59:39.575Z,95.55
2017-04-21T07:00:39.381Z,102.58
2017-04-21T07:01:39.086Z,85.33
2017-04-21T07:02:48.652Z,95.08
2017-04-21T07:03:48.132Z,87.08
2017-04-21T07:04:47.595Z,86.50
2017-04-21T07:05:47.297Z,84.35
2017-04-21T07:06:48.315Z,86.82
2017-04-21T07:07:47.973Z,94.63
2017-04-21T07:08:48.496Z,83.52
2017-04-21T07:09:48.575Z,89.00
2017-04-21T07:10:49.536Z,93.20
2017-04-21T07:11:49.152Z,92.65
2017-04-21T07:12:48.666Z,88.88
2017-04-21T07:13:49.045Z,80.37
2017-04-21T07:14:48.570Z,88.80
2017-04-21T07:15:48.116Z,86.30
2017-04-21T07:16:47.683Z,87.90
2017-04-21T07:17:47.199Z,79.42
2017-04-21T07:18:46.714Z,88.70
2017-04-21T07:19:47.151Z,84.07
2017-04-21T07:20:46.732Z,97.15
2017-04-21T07:21:46.524Z,94.95
2017-04-21T07:22:46.948Z,82.10
2017-04-21T07:23:46.443Z,86.55
2017-04-21T07:24:45.944Z,77.12
2017-04-21T07:25:45.437Z,77.12
2017-04-21T07:26:44.962Z,82.33
2017-04-21T07:27:44.507Z,76.27
2017-04-21T07:28:44.977Z,80.13
2017-04-21T07:29:44.466Z,71.07
2017-04-21T07:30:43.961Z,82.55
2017-04-21T07:31:43.436Z,87.12
2017-04-21T07:32:42.984Z,73.85
2017-04-21T07:33:42.501Z,71.22
2017-04-21T07:34:42.787Z,74.08
2017-04-21T07:36:41.886Z,77.90
2017-04-21T07:37:41.349Z,71.40
2017-04-21T07:38:40.815Z,75.98
2017-04-21T07:40:40.007Z,71.78
2017-04-21T07:42:39.768Z,73.90
2017-04-21T07:43:39.254Z,78.77
2017-04-21T07:44:38.830Z,71.15
2017-04-21T07:45:38.318Z,74.05
2017-04-21T07:46:38.009Z,71.53
2017-04-21T07:47:37.498Z,73.08
2017-04-21T07:48:36.980Z,82.47
2017-04-21T07:49:36.550Z,81.88
2017-04-21T07:50:36.015Z,72.63
2017-04-21T07:51:35.571Z,79.47
2017-04-21T07:52:35.380Z,77.52
2017-04-21T07:53:34.878Z,66.52
2017-04-21T07:54:34.363Z,71.12
2017-04-21T07:55:33.831Z,75.95
2017-04-21T07:56:33.317Z,82.77
2017-04-21T07:57:32.792Z,70.48
2017-04-21T07:58:32.380Z,69.87
2017-04-21T07:59:31.834Z,65.12
2017-04-21T08:00:31.457Z,68.07
2017-04-21T08:01:31.388Z,73.75
2017-04-21T08:02:30.891Z,74.75
2017-04-21T08:03:30.377Z,66.82
2017-04-21T08:04:30.189Z,73.97
2017-04-21T08:05:29.693Z,66.15
2017-04-21T08:06:29.267Z,75.30
2017-04-21T08:07:29.121Z,69.63
2017-04-21T08:08:29.385Z,72.45
2017-04-21T08:09:28.895Z,73.78
2017-04-21T08:10:28.556Z,76.03
2017-04-21T08:11:28.238Z,68.77
2017-04-21T08:12:27.760Z,76.27
2017-04-21T08:13:27.264Z,65.35
2017-04-21T08:14:26.779Z,70.85
2017-04-21T08:15:26.744Z,68.88
2017-04-21T08:16:26.652Z,71.13
2017-04-21T08:17:26.140Z,74.92
2017-04-21T08:18:25.920Z,71.15
2017-04-21T08:19:25.437Z,77.08
2017-04-21T08:20:24.956Z,67.77
2017-04-21T08:21:24.403Z,73.20
2017-04-21T08:22:24.128Z,62.62
2017-04-21T08:23:23.639Z,69.87
2017-04-21T08:24:23.285Z,70.10
2017-04-21T08:25:23.534Z,68.02
2017-04-21T08:26:22.998Z,63.53
2017-04-21T08:27:22.524Z,67.00
2017-04-21T08:28:22.263Z,66.48
2017-04-21T08:29:21.757Z,74.37
2017-04-21T08:30:21.346Z,65.13
2017-04-21T08:31:20.799Z,64.50
2017-04-21T08:32:20.315Z,61.32
2017-04-21T08:33:19.770Z,66.52
2017-04-21T08:34:19.617Z,64.58
2017-04-21T08:35:19.141Z,59.15
2017-04-21T08:36:18.631Z,58.43
2017-04-21T08:37:18.103Z,62.73
2017-04-21T08:38:17.570Z,64.82
2017-04-21T08:39:17.059Z,67.30
2017-04-21T08:40:16.962Z,61.17
2017-04-21T08:41:16.509Z,61.92
2017-04-21T08:42:15.977Z,55.50
2017-04-21T08:43:15.496Z,58.67
2017-04-21T08:44:14.952Z,61.15
2017-04-21T08:45:15.064Z,63.25
2017-04-21T08:46:14.684Z,57.33
2017-04-21T08:47:14.193Z,54.47
2017-04-21T08:48:13.843Z,56.33
2017-04-21T08:49:13.453Z,56.63
2017-04-21T08:50:12.905Z,57.72
2017-04-21T08:51:12.468Z,60.88
2017-04-21T08:52:12.340Z,59.52
2017-04-21T08:53:11.983Z,63.32
2017-04-21T08:54:11.593Z,59.88
2017-04-21T08:55:11.102Z,55.07
2017-04-21T08:56:10.633Z,66.45
2017-04-21T08:57:10.173Z,59.92
2017-04-21T08:58:10.159Z,58.77
2017-04-21T08:59:09.676Z,62.98
2017-04-21T09:00:09.353Z,54.62
2017-04-21T09:01:08.924Z,56.97
2017-04-21T09:02:08.401Z,60.98
2017-04-21T09:03:07.971Z,54.75
2017-04-21T09:04:08.232Z,48.50
2017-04-21T09:05:07.716Z,54.77
2017-04-21T09:06:07.209Z,58.60
2017-04-21T09:07:06.712Z,56.37
2017-04-21T09:08:06.186Z,52.82
2017-04-21T09:09:06.047Z,48.13
2017-04-21T09:10:05.794Z,58.87
2017-04-21T09:11:05.312Z,55.88
2017-04-21T09:12:04.868Z,53.48
2017-04-21T09:13:04.360Z,53.28
2017-04-21T09:14:04.565Z,51.92
2017-04-21T09:15:04.109Z,48.40
2017-04-21T09:16:03.868Z,54.77
2017-04-21T09:17:03.470Z,50.47
2017-04-21T09:18:03.082Z,49.23
2017-04-21T09:19:02.801Z,51.17
2017-04-21T09:20:02.536Z,48.77
2017-04-21T09:21:02.079Z,49.60
2017-04-21T09:22:01.918Z,49.33
2017-04-21T09:23:01.865Z,55.38
2017-04-21T09:24:01.404Z,49.28
2017-04-21T09:25:00.943Z,44.17
2017-04-21T09:26:00.644Z,54.93
2017-04-21T09:27:00.154Z,45.18
2017-04-21T09:28:00.193Z,50.12
2017-04-21T09:28:59.764Z,48.93
2017-04-21T09:29:59.412Z,45.00
2017-04-21T09:31:05.308Z,45.20
2017-04-21T09:32:04.327Z,46.28
2017-04-21T09:33:29.603Z,55.22
2017-04-21T09:33:58.632Z,49.65
2017-04-21T09:34:58.915Z,45.77
2017-04-21T09:35:58.489Z,48.45
2017-04-21T09:36:58.021Z,43.60
2017-04-21T09:37:57.580Z,44.80
2017-04-21T09:38:57.218Z,49.57
2017-04-21T09:39:56.947Z,44.13
2017-04-21T09:40:56.472Z,47.10
2017-04-21T09:41:55.953Z,38.43
2017-04-21T09:42:55.563Z,44.15
2017-04-21T09:43:55.128Z,38.27
2017-04-21T09:44:54.655Z,44.97
2017-04-21T09:45:54.406Z,38.53
2017-04-21T09:46:53.925Z,43.92
2017-04-21T09:47:53.472Z,41.88
2017-04-21T09:48:52.954Z,44.37
2017-04-21T09:49:52.488Z,35.02
2017-04-21T09:50:52.029Z,40.07
2017-04-21T09:52:37.148Z,39.58
2017-04-21T09:53:50.921Z,43.90
2017-04-21T09:54:14.143Z,38.10
2017-04-21T09:59:56.062Z,37.57
2017-04-21T10:00:06.653Z,33.05
2017-04-21T10:01:48.541Z,40.63
2017-04-21T10:01:50.396Z,36.62
2017-04-21T10:02:26.334Z,37.63
2017-04-21T10:04:21.624Z,39.47
2017-04-21T10:06:12.330Z,36.03
2017-04-21T10:06:16.121Z,38.85
2017-04-21T10:06:51.589Z,33.73
2017-04-21T10:07:00.726Z,34.82
2017-04-21T10:07:39.041Z,38.83
2017-04-21T10:08:06.264Z,34.22
2017-04-21T10:08:21.617Z,33.72
2017-04-21T10:08:33.027Z,42.55
2017-04-21T10:08:45.976Z,34.18
2017-04-21T10:09:45.500Z,39.32
2017-04-21T10:10:45.016Z,35.63
2017-04-21T10:11:44.466Z,39.12
2017-04-21T10:12:43.938Z,35.15
2017-04-21T10:13:43.429Z,37.42
2017-04-21T10:14:42.912Z,33.78
2017-04-21T10:15:42.620Z,38.92
2017-04-21T10:16:42.088Z,35.67
2017-04-21T10:17:41.581Z,33.42
2017-04-21T10:18:41.036Z,33.03
2017-04-21T10:19:40.731Z,37.00
2017-04-21T10:20:40.171Z,37.27
2017-04-21T10:21:40.067Z,34.75
2017-04-21T10:22:39.553Z,42.53
2017-04-21T10:23:39.011Z,39.12
2017-04-21T10:24:38.522Z,46.98
2017-04-21T10:25:39.226Z,45.00
2017-04-21T10:26:38.739Z,39.35
2017-04-21T10:27:39.263Z,40.20
2017-04-21T10:28:38.768Z,41.70
2017-04-21T10:29:38.263Z,40.43
2017-04-21T10:30:37.752Z,38.68
2017-04-21T10:31:37.248Z,36.12
2017-04-21T10:32:36.735Z,39.35
2017-04-21T10:33:37.272Z,35.17
2017-04-21T10:34:36.797Z,36.20
2017-04-21T10:35:36.280Z,31.25
2017-04-21T10:36:35.822Z,36.48
2017-04-21T10:37:35.300Z,37.60
2017-04-21T10:38:34.775Z,35.55
2017-04-21T10:39:35.125Z,34.63
2017-04-21T10:40:34.667Z,39.47
2017-04-21T10:41:34.165Z,30.12
2017-04-21T10:42:33.708Z,28.47
2017-04-21T10:43:33.943Z,31.10
2017-04-21T10:44:33.439Z,33.28
2017-04-21T10:45:33.209Z,37.03
2017-04-21T10:46:35.272Z,28.27
2017-04-21T10:47:35.540Z,25.83
2017-04-21T10:48:35.232Z,33.45
2017-04-21T10:49:34.711Z,30.87
2017-04-21T10:50:34.476Z,24.90
2017-04-21T10:51:33.997Z,29.40
2017-04-21T10:52:33.504Z,26.87
2017-04-21T10:53:32.947Z,32.02
2017-04-21T10:54:32.563Z,29.82
2017-04-21T10:55:32.065Z,34.52
2017-04-21T10:56:31.652Z,28.75
2017-04-21T10:57:31.744Z,39.32
2017-04-21T10:58:31.255Z,25.80
2017-04-21T10:59:30.808Z,27.87
2017-04-21T11:00:30.318Z,30.50
2017-04-21T11:01:29.810Z,20.60
2017-04-21T11:02:29.342Z,23.80
2017-04-21T11:03:28.833Z,23.57
2017-04-21T11:04:28.311Z,25.75
2017-04-21T11:05:27.828Z,21.00
2017-04-21T11:06:27.337Z,19.60
2017-04-21T11:07:26.832Z,21.08
2017-04-21T11:08:26.665Z,25.28
2017-04-21T11:09:26.149Z,23.45
2017-04-21T11:10:25.623Z,23.63
2017-04-21T11:11:25.092Z,18.18
2017-04-21T11:12:24.568Z,20.87
2017-04-21T11:13:24.078Z,21.53
2017-04-21T11:14:23.716Z,17.12
2017-04-21T11:15:23.191Z,18.62
2017-04-21T11:16:22.677Z,19.10
2017-04-21T11:17:22.209Z,17.75
2017-04-21T11:18:21.689Z,22.18
2017-04-21T11:19:21.154Z,18.83
2017-04-21T11:20:20.998Z,20.10
2017-04-21T11:21:20.584Z,19.42
2017-04-21T11:22:20.280Z,19.02
2017-04-21T11:23:20.540Z,18.90
2017-04-21T11:24:20.065Z,21.87
2017-04-21T11:25:20.752Z,24.47
2017-04-21T11:26:20.292Z,23.62
2017-04-21T11:27:20.641Z,19.63
2017-04-21T11:28:20.177Z,20.75
2017-04-21T11:29:19.727Z,21.85
2017-04-21T11:30:21.146Z,16.68
2017-04-21T11:31:20.599Z,18.38
2017-04-21T11:32:20.690Z,20.63
2017-04-21T11:33:21.877Z,19.35
2017-04-21T11:34:21.462Z,17.80
2017-04-21T11:35:20.985Z,18.37
2017-04-21T11:36:20.499Z,21.52
2017-04-21T11:37:19.957Z,22.07
2017-04-21T11:38:19.496Z,19.65
2017-04-21T11:39:19.612Z,20.15
2017-04-21T11:40:19.088Z,21.87
2017-04-21T11:41:18.889Z,20.27
2017-04-21T11:42:18.417Z,20.00
2017-04-21T11:43:18.108Z,20.20
2017-04-21T11:44:17.609Z,20.38
2017-04-21T11:45:17.458Z,17.02
2017-04-21T11:46:16.949Z,22.98
2017-04-21T11:47:17.210Z,18.93
2017-04-21T11:48:16.711Z,20.25
2017-04-21T11:49:16.256Z,22.77
2017-04-21T11:50:15.757Z,23.18
2017-04-21T11:51:15.377Z,21.38
2017-04-21T11:52:14.871Z,18.50
2017-04-21T11:53:14.773Z,21.62
2017-04-21T11:54:14.255Z,21.55
2017-04-21T11:55:13.725Z,20.72
2017-04-21T11:56:13.238Z,22.57
2017-04-21T11:57:13.488Z,21.65
2017-04-21T11:58:12.919Z,20.42
2017-04-21T11:59:12.722Z,26.25
2017-04-21T12:00:12.339Z,21.25
2017-04-21T12:01:11.880Z,21.98
2017-04-21T12:02:11.344Z,20.85
2017-04-21T12:03:10.800Z,21.62
2017-04-21T12:04:10.264Z,22.65
2017-04-21T12:05:09.832Z,22.98
2017-04-21T12:06:09.311Z,23.75
2017-04-21T12:07:08.806Z,22.63
2017-04-21T12:08:09.121Z,28.07
2017-04-21T12:09:08.646Z,24.63
2017-04-21T12:10:08.129Z,24.42
2017-04-21T12:11:07.810Z,23.28
2017-04-21T12:12:07.326Z,25.52
2017-04-21T12:13:06.932Z,22.90
2017-04-21T12:14:10.903Z,28.12
2017-04-21T12:15:10.596Z,28.57
2017-04-21T12:16:10.109Z,25.05
2017-04-21T12:17:09.599Z,23.60
2017-04-21T12:18:09.798Z,27.53
2017-04-21T12:19:09.305Z,24.80
2017-04-21T12:20:08.779Z,24.53
2017-04-21T12:21:08.317Z,25.70
2017-04-21T12:22:08.774Z,29.28
2017-04-21T12:23:08.223Z,25.93
2017-04-21T12:24:07.783Z,26.40
2017-04-21T12:25:07.285Z,25.65
2017-04-21T12:26:06.762Z,24.47
2017-04-21T12:27:06.317Z,23.88
2017-04-21T12:28:07.688Z,26.72
2017-04-21T12:29:07.212Z,23.70
2017-04-21T12:30:06.758Z,24.55
2017-04-21T12:31:06.277Z,22.52
2017-04-21T12:32:05.771Z,24.02
2017-04-21T12:33:05.278Z,27.68
2017-04-21T12:34:04.857Z,30.38
2017-04-21T12:35:04.380Z,26.35
2017-04-21T12:36:03.995Z,24.03
2017-04-21T12:37:03.589Z,28.08
2017-04-21T12:38:03.108Z,27.98
2017-04-21T12:39:03.228Z,26.68
2017-04-21T12:40:03.020Z,25.65
2017-04-21T12:41:02.499Z,24.62
2017-04-21T12:42:02.254Z,24.87
2017-04-21T12:43:01.805Z,22.13
2017-04-21T12:44:01.300Z,24.17
2017-04-21T12:45:00.806Z,24.53
2017-04-21T12:46:01.229Z,24.92
2017-04-21T12:47:00.745Z,22.50
2017-04-21T12:48:01.068Z,22.78
2017-04-21T12:49:00.567Z,22.67
2017-04-21T12:50:00.115Z,22.60
2017-04-21T12:50:59.637Z,25.52
2017-04-21T12:51:59.254Z,26.78
2017-04-21T12:52:59.223Z,24.43
2017-04-21T12:53:58.736Z,25.52
2017-04-21T12:54:58.245Z,30.72
2017-04-21T12:55:57.720Z,23.52
2017-04-21T12:56:58.019Z,29.90
2017-04-21T12:57:57.761Z,29.35
2017-04-21T12:58:58.384Z,33.78